CheckWX is a tool to help pilots better visualize weather data.  It is not intended as a substitute for an official pre-flight weather briefing.

14:01:25 UTC

EGPM METAR
Scatsta Airport
Shetland Islands, United Kingdom
Current

11 mins ago

EGPM 251350Z 14015KT 9000 FEW010 SCT014 12/09 Q1003 TEMPO BKN010
Observed
Apr-25 @ 13:50 UTC
Wind
  • 140° at 15 KTS
Visibility
8,996 meters
Flight Rules
VFR
Cloud Levels
  • Few at 1,000' AGL
  • Scattered at 1,400' AGL
Temperature
12°C / 54°F
Dewpoint
C / 48°F
Humidity
82%
Altimeter
29.62" Hg
Pressure
1002.92 hPa
Previous

41 mins ago

EGPM 251320Z 15016KT 7000 FEW007 BKN012 11/09 Q1003 TEMPO BKN007
Observed
Apr-25 @ 13:20 UTC
Wind
  • 150° at 16 KTS
Visibility
7,001 meters
Flight Rules
MVFR
Cloud Levels
  • Few at 700' AGL
  • Broken at 1,200' AGL
Temperature
11°C / 52°F
Dewpoint
C / 48°F
Humidity
88%
Altimeter
29.62" Hg
Pressure
1002.92 hPa
Previous

1 hour ago

EGPM 251250Z 13016KT 6000 FEW007 BKN012 11/09 Q1002 BECMG 2000 BR BKN006
Observed
Apr-25 @ 12:50 UTC
Wind
  • 130° at 16 KTS
Visibility
6,003 meters
Flight Rules
MVFR
Cloud Levels
  • Few at 700' AGL
  • Broken at 1,200' AGL
Temperature
11°C / 52°F
Dewpoint
C / 48°F
Humidity
88%
Altimeter
29.59" Hg
Pressure
1001.92 hPa